sensor_id;sensor_type;location;lat;lon;timestamp;pressure;altitude;pressure_sealevel;temperature;humidity
72262;BME280;60173;52.112;8.648;2023-04-10T00:02:23;101369.38;;;4.07;84.99
72262;BME280;60173;52.112;8.648;2023-04-10T00:04:49;101372.53;;;4.04;85.10
72262;BME280;60173;52.112;8.648;2023-04-10T00:07:16;101369.81;;;3.93;85.81
72262;BME280;60173;52.112;8.648;2023-04-10T00:09:42;101366.44;;;3.85;86.38
72262;BME280;60173;52.112;8.648;2023-04-10T00:12:09;101368.97;;;3.80;86.85
72262;BME280;60173;52.112;8.648;2023-04-10T00:14:35;101358.69;;;3.77;86.95
72262;BME280;60173;52.112;8.648;2023-04-10T00:17:02;101350.16;;;3.69;87.31
72262;BME280;60173;52.112;8.648;2023-04-10T00:19:28;101356.44;;;3.62;87.48
72262;BME280;60173;52.112;8.648;2023-04-10T00:21:56;101348.38;;;3.62;87.67
72262;BME280;60173;52.112;8.648;2023-04-10T00:24:22;101353.50;;;3.64;87.78
72262;BME280;60173;52.112;8.648;2023-04-10T00:26:49;101343.47;;;3.59;87.66
72262;BME280;60173;52.112;8.648;2023-04-10T00:29:15;101346.63;;;3.56;87.85
72262;BME280;60173;52.112;8.648;2023-04-10T00:31:41;101346.28;;;3.65;87.95
72262;BME280;60173;52.112;8.648;2023-04-10T00:34:08;101337.84;;;3.61;87.44
72262;BME280;60173;52.112;8.648;2023-04-10T00:36:34;101336.59;;;3.63;87.91
72262;BME280;60173;52.112;8.648;2023-04-10T00:39:01;101330.66;;;3.73;87.23
72262;BME280;60173;52.112;8.648;2023-04-10T00:41:27;101331.34;;;3.80;86.80
72262;BME280;60173;52.112;8.648;2023-04-10T00:43:55;101329.00;;;3.72;87.24
72262;BME280;60173;52.112;8.648;2023-04-10T00:46:22;101327.72;;;3.75;87.03
72262;BME280;60173;52.112;8.648;2023-04-10T00:48:53;101322.34;;;3.75;87.03
72262;BME280;60173;52.112;8.648;2023-04-10T00:51:21;101319.91;;;3.73;87.25
72262;BME280;60173;52.112;8.648;2023-04-10T00:53:50;101331.94;;;3.71;87.54
72262;BME280;60173;52.112;8.648;2023-04-10T00:56:18;101325.50;;;3.72;87.35
72262;BME280;60173;52.112;8.648;2023-04-10T00:58:44;101325.03;;;3.75;87.84
72262;BME280;60173;52.112;8.648;2023-04-10T01:01:10;101323.97;;;3.76;87.85
72262;BME280;60173;52.112;8.648;2023-04-10T01:03:38;101317.09;;;3.68;87.75
72262;BME280;60173;52.112;8.648;2023-04-10T01:11:53;101314.16;;;3.70;87.98
72262;BME280;60173;52.112;8.648;2023-04-10T01:17:06;101307.19;;;3.80;87.56
72262;BME280;60173;52.112;8.648;2023-04-10T01:20:03;101311.50;;;3.81;87.40
72262;BME280;60173;52.112;8.648;2023-04-10T01:25:45;101314.50;;;3.61;88.12
72262;BME280;60173;52.112;8.648;2023-04-10T01:31:06;101321.63;;;3.56;88.65
72262;BME280;60173;52.112;8.648;2023-04-10T01:33:49;101315.91;;;3.64;88.40
72262;BME280;60173;52.112;8.648;2023-04-10T01:36:22;101312.53;;;3.69;88.44
72262;BME280;60173;52.112;8.648;2023-04-10T01:38:51;101306.47;;;3.73;88.67
72262;BME280;60173;52.112;8.648;2023-04-10T01:41:19;101311.97;;;3.78;88.72
72262;BME280;60173;52.112;8.648;2023-04-10T01:43:48;101309.88;;;3.80;88.79
72262;BME280;60173;52.112;8.648;2023-04-10T01:46:17;101312.34;;;3.82;88.45
72262;BME280;60173;52.112;8.648;2023-04-10T01:48:45;101304.63;;;3.85;88.25
72262;BME280;60173;52.112;8.648;2023-04-10T01:51:13;101311.75;;;3.80;88.24
72262;BME280;60173;52.112;8.648;2023-04-10T01:53:42;101307.03;;;3.75;88.24
72262;BME280;60173;52.112;8.648;2023-04-10T01:56:09;101308.78;;;3.70;88.26
72262;BME280;60173;52.112;8.648;2023-04-10T01:58:36;101307.41;;;3.79;88.63
72262;BME280;60173;52.112;8.648;2023-04-10T02:01:02;101300.97;;;3.68;88.62
72262;BME280;60173;52.112;8.648;2023-04-10T02:03:29;101296.28;;;3.75;88.70
72262;BME280;60173;52.112;8.648;2023-04-10T02:08:39;101297.25;;;3.93;88.42
72262;BME280;60173;52.112;8.648;2023-04-10T02:11:12;101287.78;;;3.90;88.01
72262;BME280;60173;52.112;8.648;2023-04-10T02:13:40;101284.16;;;3.84;88.10
72262;BME280;60173;52.112;8.648;2023-04-10T02:16:08;101279.50;;;3.80;88.62
72262;BME280;60173;52.112;8.648;2023-04-10T02:18:36;101283.81;;;3.81;88.88
72262;BME280;60173;52.112;8.648;2023-04-10T02:21:03;101269.34;;;3.82;88.95
72262;BME280;60173;52.112;8.648;2023-04-10T02:23:30;101268.41;;;3.88;88.74
72262;BME280;60173;52.112;8.648;2023-04-10T02:25:56;101265.72;;;3.88;88.75
72262;BME280;60173;52.112;8.648;2023-04-10T02:28:22;101264.91;;;3.99;88.58
72262;BME280;60173;52.112;8.648;2023-04-10T02:30:49;101255.53;;;3.90;88.45
72262;BME280;60173;52.112;8.648;2023-04-10T02:33:15;101267.34;;;4.01;88.24
72262;BME280;60173;52.112;8.648;2023-04-10T02:35:42;101258.31;;;4.19;87.28
72262;BME280;60173;52.112;8.648;2023-04-10T02:38:08;101258.78;;;4.16;87.28
72262;BME280;60173;52.112;8.648;2023-04-10T02:40:35;101260.44;;;4.17;87.40
72262;BME280;60173;52.112;8.648;2023-04-10T02:43:01;101258.78;;;4.16;87.35
72262;BME280;60173;52.112;8.648;2023-04-10T02:45:28;101264.16;;;4.16;87.46
72262;BME280;60173;52.112;8.648;2023-04-10T02:47:54;101261.59;;;4.09;87.63
72262;BME280;60173;52.112;8.648;2023-04-10T02:50:20;101264.44;;;4.02;87.82
72262;BME280;60173;52.112;8.648;2023-04-10T02:52:47;101267.31;;;4.13;88.10
72262;BME280;60173;52.112;8.648;2023-04-10T02:55:13;101258.22;;;4.25;87.52
72262;BME280;60173;52.112;8.648;2023-04-10T02:57:40;101271.41;;;4.27;87.18
72262;BME280;60173;52.112;8.648;2023-04-10T03:00:07;101265.91;;;4.22;87.01
72262;BME280;60173;52.112;8.648;2023-04-10T03:02:33;101261.72;;;4.26;87.15
72262;BME280;60173;52.112;8.648;2023-04-10T03:05:00;101259.38;;;4.29;86.88
72262;BME280;60173;52.112;8.648;2023-04-10T03:07:26;101257.38;;;4.25;86.99
72262;BME280;60173;52.112;8.648;2023-04-10T03:09:53;101258.91;;;4.21;87.03
72262;BME280;60173;52.112;8.648;2023-04-10T03:12:19;101257.97;;;4.15;87.16
72262;BME280;60173;52.112;8.648;2023-04-10T03:14:45;101249.41;;;4.30;86.98
72262;BME280;60173;52.112;8.648;2023-04-10T03:17:12;101253.16;;;4.29;86.73
72262;BME280;60173;52.112;8.648;2023-04-10T03:19:38;101249.78;;;4.22;86.54
72262;BME280;60173;52.112;8.648;2023-04-10T03:22:04;101252.09;;;4.30;86.70
72262;BME280;60173;52.112;8.648;2023-04-10T03:24:30;101253.66;;;4.26;86.62
72262;BME280;60173;52.112;8.648;2023-04-10T03:26:57;101251.88;;;4.32;86.73
72262;BME280;60173;52.112;8.648;2023-04-10T03:29:23;101247.69;;;4.24;86.65
72262;BME280;60173;52.112;8.648;2023-04-10T03:31:49;101251.66;;;4.21;86.90
72262;BME280;60173;52.112;8.648;2023-04-10T03:34:16;101242.63;;;4.27;86.66
72262;BME280;60173;52.112;8.648;2023-04-10T03:36:42;101239.75;;;4.17;86.59
72262;BME280;60173;52.112;8.648;2023-04-10T03:39:08;101238.00;;;4.23;86.80
72262;BME280;60173;52.112;8.648;2023-04-10T03:41:35;101235.38;;;4.28;86.57
72262;BME280;60173;52.112;8.648;2023-04-10T03:44:01;101227.47;;;4.21;86.86
72262;BME280;60173;52.112;8.648;2023-04-10T03:46:27;101230.28;;;4.15;87.02
72262;BME280;60173;52.112;8.648;2023-04-10T03:48:54;101223.97;;;4.21;86.71
72262;BME280;60173;52.112;8.648;2023-04-10T03:51:20;101219.16;;;4.23;86.99
72262;BME280;60173;52.112;8.648;2023-04-10T03:53:46;101228.38;;;4.27;86.53
72262;BME280;60173;52.112;8.648;2023-04-10T03:56:13;101226.06;;;4.19;86.59
72262;BME280;60173;52.112;8.648;2023-04-10T03:58:39;101226.06;;;4.19;86.67
72262;BME280;60173;52.112;8.648;2023-04-10T04:01:06;101226.31;;;4.17;86.77
72262;BME280;60173;52.112;8.648;2023-04-10T04:03:32;101233.91;;;4.20;86.70
72262;BME280;60173;52.112;8.648;2023-04-10T04:05:59;101219.66;;;4.20;86.54
72262;BME280;60173;52.112;8.648;2023-04-10T04:08:25;101219.19;;;4.11;86.80
72262;BME280;60173;52.112;8.648;2023-04-10T04:10:51;101221.03;;;4.11;87.22
72262;BME280;60173;52.112;8.648;2023-04-10T04:13:18;101217.19;;;4.06;87.27
72262;BME280;60173;52.112;8.648;2023-04-10T04:15:44;101215.19;;;4.02;87.20
72262;BME280;60173;52.112;8.648;2023-04-10T04:18:11;101220.09;;;4.05;87.53
72262;BME280;60173;52.112;8.648;2023-04-10T04:20:37;101219.44;;;3.98;87.49
72262;BME280;60173;52.112;8.648;2023-04-10T04:23:03;101221.06;;;3.99;87.34
72262;BME280;60173;52.112;8.648;2023-04-10T04:25:30;101214.88;;;3.98;87.45
72262;BME280;60173;52.112;8.648;2023-04-10T04:27:56;101220.47;;;4.08;87.20
72262;BME280;60173;52.112;8.648;2023-04-10T04:30:22;101223.03;;;4.15;86.91
72262;BME280;60173;52.112;8.648;2023-04-10T04:32:48;101227.47;;;4.10;86.64
72262;BME280;60173;52.112;8.648;2023-04-10T04:35:16;101230.53;;;4.01;87.17
72262;BME280;60173;52.112;8.648;2023-04-10T04:37:42;101226.81;;;4.02;87.24
72262;BME280;60173;52.112;8.648;2023-04-10T04:40:09;101226.88;;;4.07;87.31
72262;BME280;60173;52.112;8.648;2023-04-10T04:42:35;101226.06;;;4.07;87.29
72262;BME280;60173;52.112;8.648;2023-04-10T04:45:01;101233.00;;;4.03;87.42
72262;BME280;60173;52.112;8.648;2023-04-10T04:47:28;101231.69;;;4.05;87.49
72262;BME280;60173;52.112;8.648;2023-04-10T04:49:54;101235.31;;;4.11;86.99
72262;BME280;60173;52.112;8.648;2023-04-10T04:52:21;101236.13;;;4.12;86.86
72262;BME280;60173;52.112;8.648;2023-04-10T04:54:47;101235.78;;;4.20;86.66
72262;BME280;60173;52.112;8.648;2023-04-10T04:57:13;101232.34;;;4.36;85.93
72262;BME280;60173;52.112;8.648;2023-04-10T04:59:39;101235.59;;;4.38;85.82
72262;BME280;60173;52.112;8.648;2023-04-10T05:02:06;101230.59;;;4.30;85.60
72262;BME280;60173;52.112;8.648;2023-04-10T05:04:32;101240.19;;;4.38;85.59
72262;BME280;60173;52.112;8.648;2023-04-10T05:06:59;101242.50;;;4.46;85.21
72262;BME280;60173;52.112;8.648;2023-04-10T05:09:25;101229.97;;;4.51;85.14
72262;BME280;60173;52.112;8.648;2023-04-10T05:11:51;101231.59;;;4.52;84.91
72262;BME280;60173;52.112;8.648;2023-04-10T05:14:19;101235.06;;;4.65;84.83
72262;BME280;60173;52.112;8.648;2023-04-10T05:16:45;101231.78;;;4.63;84.61
72262;BME280;60173;52.112;8.648;2023-04-10T05:19:11;101233.09;;;4.60;85.10
72262;BME280;60173;52.112;8.648;2023-04-10T05:21:38;101239.59;;;4.76;85.30
72262;BME280;60173;52.112;8.648;2023-04-10T05:24:04;101234.88;;;4.83;84.68
72262;BME280;60173;52.112;8.648;2023-04-10T05:26:30;101232.53;;;4.87;84.21
72262;BME280;60173;52.112;8.648;2023-04-10T05:28:57;101242.31;;;4.93;83.93
72262;BME280;60173;52.112;8.648;2023-04-10T05:31:23;101246.09;;;5.09;83.36
72262;BME280;60173;52.112;8.648;2023-04-10T05:33:50;101241.75;;;5.36;82.12
72262;BME280;60173;52.112;8.648;2023-04-10T05:36:16;101240.19;;;5.40;81.38
72262;BME280;60173;52.112;8.648;2023-04-10T05:38:42;101240.75;;;5.42;81.61
72262;BME280;60173;52.112;8.648;2023-04-10T05:41:09;101239.63;;;5.38;81.80
72262;BME280;60173;52.112;8.648;2023-04-10T05:43:35;101239.28;;;5.52;81.27
72262;BME280;60173;52.112;8.648;2023-04-10T05:46:01;101232.41;;;5.61;81.06
72262;BME280;60173;52.112;8.648;2023-04-10T05:48:28;101233.66;;;5.70;80.46
72262;BME280;60173;52.112;8.648;2023-04-10T05:50:54;101222.44;;;5.78;80.32
72262;BME280;60173;52.112;8.648;2023-04-10T05:53:20;101221.03;;;5.93;79.47
72262;BME280;60173;52.112;8.648;2023-04-10T05:55:50;101219.16;;;6.10;79.62
72262;BME280;60173;52.112;8.648;2023-04-10T05:58:16;101214.00;;;6.30;78.05
72262;BME280;60173;52.112;8.648;2023-04-10T06:00:42;101214.81;;;6.53;77.12
72262;BME280;60173;52.112;8.648;2023-04-10T06:03:09;101215.03;;;6.73;76.82
72262;BME280;60173;52.112;8.648;2023-04-10T06:05:35;101210.38;;;6.91;76.19
72262;BME280;60173;52.112;8.648;2023-04-10T06:08:02;101205.66;;;7.40;74.29
72262;BME280;60173;52.112;8.648;2023-04-10T06:10:28;101208.94;;;7.80;72.83
72262;BME280;60173;52.112;8.648;2023-04-10T06:12:55;101198.84;;;8.18;71.15
72262;BME280;60173;52.112;8.648;2023-04-10T06:15:21;101201.50;;;8.65;69.23
72262;BME280;60173;52.112;8.648;2023-04-10T06:17:47;101199.09;;;8.84;67.91
72262;BME280;60173;52.112;8.648;2023-04-10T06:20:14;101190.72;;;9.37;65.38
72262;BME280;60173;52.112;8.648;2023-04-10T06:22:40;101189.34;;;9.70;65.13
72262;BME280;60173;52.112;8.648;2023-04-10T06:25:07;101196.97;;;9.22;66.39
72262;BME280;60173;52.112;8.648;2023-04-10T06:27:33;101186.13;;;9.01;66.97
72262;BME280;60173;52.112;8.648;2023-04-10T06:30:00;101186.13;;;9.01;67.29
72262;BME280;60173;52.112;8.648;2023-04-10T06:32:26;101179.59;;;8.82;67.71
72262;BME280;60173;52.112;8.648;2023-04-10T06:34:53;101180.06;;;8.48;69.29
72262;BME280;60173;52.112;8.648;2023-04-10T06:37:26;101176.25;;;8.44;69.55
72262;BME280;60173;52.112;8.648;2023-04-10T06:40:02;101173.72;;;8.27;69.80
72262;BME280;60173;52.112;8.648;2023-04-10T06:42:28;101179.44;;;8.31;69.52
72262;BME280;60173;52.112;8.648;2023-04-10T06:44:55;101181.59;;;8.29;69.79
72262;BME280;60173;52.112;8.648;2023-04-10T06:47:21;101177.78;;;8.25;69.74
72262;BME280;60173;52.112;8.648;2023-04-10T06:49:48;101177.59;;;8.42;69.25
72262;BME280;60173;52.112;8.648;2023-04-10T06:52:14;101176.31;;;8.65;68.05
72262;BME280;60173;52.112;8.648;2023-04-10T06:54:40;101182.81;;;8.53;68.58
72262;BME280;60173;52.112;8.648;2023-04-10T06:57:07;101182.28;;;8.67;68.37
72262;BME280;60173;52.112;8.648;2023-04-10T06:59:33;101176.88;;;8.82;67.63
72262;BME280;60173;52.112;8.648;2023-04-10T07:02:03;101178.25;;;8.90;67.78
72262;BME280;60173;52.112;8.648;2023-04-10T07:04:30;101176.91;;;9.02;67.13
72262;BME280;60173;52.112;8.648;2023-04-10T07:06:56;101176.38;;;9.26;66.87
72262;BME280;60173;52.112;8.648;2023-04-10T07:09:26;101179.34;;;9.24;66.81
72262;BME280;60173;52.112;8.648;2023-04-10T07:11:52;101173.66;;;9.41;65.98
72262;BME280;60173;52.112;8.648;2023-04-10T07:14:19;101163.28;;;9.74;65.01
72262;BME280;60173;52.112;8.648;2023-04-10T07:16:45;101165.44;;;9.87;63.20
72262;BME280;60173;52.112;8.648;2023-04-10T07:19:11;101170.31;;;9.85;64.84
72262;BME280;60173;52.112;8.648;2023-04-10T07:21:38;101178.09;;;10.12;63.99
72262;BME280;60173;52.112;8.648;2023-04-10T07:24:04;101163.13;;;10.30;63.26
72262;BME280;60173;52.112;8.648;2023-04-10T07:26:30;101165.81;;;10.35;63.09
72262;BME280;60173;52.112;8.648;2023-04-10T07:28:57;101159.25;;;10.47;62.10
72262;BME280;60173;52.112;8.648;2023-04-10T07:31:23;101157.03;;;10.54;62.23
72262;BME280;60173;52.112;8.648;2023-04-10T07:33:50;101150.91;;;10.33;63.35
72262;BME280;60173;52.112;8.648;2023-04-10T07:36:16;101150.31;;;10.41;62.97
72262;BME280;60173;52.112;8.648;2023-04-10T07:38:43;101145.16;;;10.45;63.30
72262;BME280;60173;52.112;8.648;2023-04-10T07:41:09;101148.69;;;10.84;61.93
72262;BME280;60173;52.112;8.648;2023-04-10T07:43:35;101147.44;;;11.06;61.57
72262;BME280;60173;52.112;8.648;2023-04-10T07:46:02;101150.59;;;11.18;59.67
72262;BME280;60173;52.112;8.648;2023-04-10T07:48:28;101147.72;;;11.34;61.69
72262;BME280;60173;52.112;8.648;2023-04-10T07:50:54;101139.72;;;11.71;60.08
72262;BME280;60173;52.112;8.648;2023-04-10T07:53:21;101132.00;;;11.84;58.78
72262;BME280;60173;52.112;8.648;2023-04-10T07:55:48;101135.16;;;11.96;57.87
72262;BME280;60173;52.112;8.648;2023-04-10T07:58:15;101128.22;;;11.80;58.48
72262;BME280;60173;52.112;8.648;2023-04-10T08:00:41;101124.41;;;11.81;59.01
72262;BME280;60173;52.112;8.648;2023-04-10T08:03:07;101127.19;;;11.99;58.40
72262;BME280;60173;52.112;8.648;2023-04-10T08:05:34;101122.88;;;12.17;57.96
72262;BME280;60173;52.112;8.648;2023-04-10T08:08:00;101115.88;;;12.11;58.14
72262;BME280;60173;52.112;8.648;2023-04-10T08:10:27;101107.56;;;12.03;58.75
72262;BME280;60173;52.112;8.648;2023-04-10T08:12:53;101101.69;;;12.14;57.07
72262;BME280;60173;52.112;8.648;2023-04-10T08:15:19;101098.03;;;12.24;57.19
72262;BME280;60173;52.112;8.648;2023-04-10T08:17:46;101088.91;;;12.34;57.57
72262;BME280;60173;52.112;8.648;2023-04-10T08:20:12;101081.97;;;12.60;55.23
72262;BME280;60173;52.112;8.648;2023-04-10T08:22:39;101075.78;;;12.74;54.86
72262;BME280;60173;52.112;8.648;2023-04-10T08:25:05;101072.09;;;12.64;53.51
72262;BME280;60173;52.112;8.648;2023-04-10T08:27:32;101052.09;;;12.88;53.14
72262;BME280;60173;52.112;8.648;2023-04-10T08:29:58;101061.72;;;12.99;52.36
72262;BME280;60173;52.112;8.648;2023-04-10T08:32:24;101052.91;;;13.35;53.73
72262;BME280;60173;52.112;8.648;2023-04-10T08:34:51;101059.78;;;13.60;52.56
72262;BME280;60173;52.112;8.648;2023-04-10T08:37:17;101053.50;;;13.73;47.28
72262;BME280;60173;52.112;8.648;2023-04-10T08:39:43;101044.22;;;13.61;48.11
72262;BME280;60173;52.112;8.648;2023-04-10T08:42:09;101050.59;;;13.70;46.74
72262;BME280;60173;52.112;8.648;2023-04-10T08:44:36;101048.66;;;13.56;47.23
72262;BME280;60173;52.112;8.648;2023-04-10T08:47:03;101033.72;;;13.54;47.29
72262;BME280;60173;52.112;8.648;2023-04-10T08:49:38;101029.25;;;13.72;47.45
72262;BME280;60173;52.112;8.648;2023-04-10T08:52:07;101025.97;;;13.97;47.29
72262;BME280;60173;52.112;8.648;2023-04-10T08:54:37;101029.34;;;14.17;46.93
72262;BME280;60173;52.112;8.648;2023-04-10T08:57:05;101022.72;;;14.32;46.39
72262;BME280;60173;52.112;8.648;2023-04-10T08:59:35;101027.78;;;14.38;46.39
72262;BME280;60173;52.112;8.648;2023-04-10T09:02:02;101019.94;;;14.45;45.72
72262;BME280;60173;52.112;8.648;2023-04-10T09:04:28;101011.69;;;14.37;45.74
72262;BME280;60173;52.112;8.648;2023-04-10T09:06:55;101009.63;;;14.42;46.49
72262;BME280;60173;52.112;8.648;2023-04-10T09:09:21;101010.91;;;14.22;45.38
72262;BME280;60173;52.112;8.648;2023-04-10T09:14:27;100994.41;;;13.91;45.85
72262;BME280;60173;52.112;8.648;2023-04-10T09:19:38;101003.22;;;13.88;46.36
72262;BME280;60173;52.112;8.648;2023-04-10T09:22:05;100994.03;;;13.84;46.69
72262;BME280;60173;52.112;8.648;2023-04-10T09:24:35;100993.84;;;14.17;46.14
72262;BME280;60173;52.112;8.648;2023-04-10T09:27:02;100985.09;;;14.29;46.12
72262;BME280;60173;52.112;8.648;2023-04-10T09:29:42;100969.94;;;14.45;46.10
72262;BME280;60173;52.112;8.648;2023-04-10T09:32:08;100964.06;;;14.52;44.67
72262;BME280;60173;52.112;8.648;2023-04-10T09:34:50;100961.25;;;14.43;44.89
72262;BME280;60173;52.112;8.648;2023-04-10T09:37:17;100950.41;;;14.29;44.31
72262;BME280;60173;52.112;8.648;2023-04-10T09:39:44;100946.91;;;14.37;44.94
72262;BME280;60173;52.112;8.648;2023-04-10T09:42:10;100951.31;;;14.47;45.31
72262;BME280;60173;52.112;8.648;2023-04-10T09:44:38;100943.69;;;14.35;45.51
72262;BME280;60173;52.112;8.648;2023-04-10T09:47:19;100939.25;;;14.71;46.21
72262;BME280;60173;52.112;8.648;2023-04-10T09:52:20;100928.31;;;15.02;44.28
72262;BME280;60173;52.112;8.648;2023-04-10T09:54:46;100928.13;;;15.07;43.56
72262;BME280;60173;52.112;8.648;2023-04-10T09:57:17;100923.63;;;15.02;44.81
72262;BME280;60173;52.112;8.648;2023-04-10T09:59:49;100925.75;;;15.05;44.04
72262;BME280;60173;52.112;8.648;2023-04-10T10:02:21;100916.59;;;15.27;43.22
72262;BME280;60173;52.112;8.648;2023-04-10T10:04:48;100910.03;;;15.28;43.58
72262;BME280;60173;52.112;8.648;2023-04-10T10:07:17;100913.75;;;15.41;42.35
72262;BME280;60173;52.112;8.648;2023-04-10T10:09:46;100900.22;;;15.36;43.06
72262;BME280;60173;52.112;8.648;2023-04-10T10:12:21;100902.97;;;15.45;42.29
72262;BME280;60173;52.112;8.648;2023-04-10T10:15:01;100889.88;;;15.24;41.95
72262;BME280;60173;52.112;8.648;2023-04-10T10:17:34;100896.34;;;15.20;42.24
72262;BME280;60173;52.112;8.648;2023-04-10T10:20:06;100885.75;;;15.44;43.23
72262;BME280;60173;52.112;8.648;2023-04-10T10:22:34;100877.75;;;15.91;42.90
72262;BME280;60173;52.112;8.648;2023-04-10T10:25:02;100867.53;;;16.26;41.89
72262;BME280;60173;52.112;8.648;2023-04-10T10:27:35;100864.75;;;16.35;40.75
72262;BME280;60173;52.112;8.648;2023-04-10T10:30:03;100872.84;;;16.23;39.22
72262;BME280;60173;52.112;8.648;2023-04-10T10:32:51;100859.63;;;16.25;39.99
72262;BME280;60173;52.112;8.648;2023-04-10T10:35:18;100853.47;;;16.28;40.88
72262;BME280;60173;52.112;8.648;2023-04-10T10:37:44;100854.50;;;16.06;39.49
72262;BME280;60173;52.112;8.648;2023-04-10T10:40:18;100848.69;;;16.08;41.05
72262;BME280;60173;52.112;8.648;2023-04-10T10:42:56;100846.72;;;16.25;39.28
72262;BME280;60173;52.112;8.648;2023-04-10T10:45:33;100846.91;;;16.20;38.82
72262;BME280;60173;52.112;8.648;2023-04-10T10:48:00;100844.63;;;16.22;39.53
72262;BME280;60173;52.112;8.648;2023-04-10T10:50:55;100839.03;;;16.10;38.96
72262;BME280;60173;52.112;8.648;2023-04-10T10:58:55;100835.78;;;16.17;39.93
72262;BME280;60173;52.112;8.648;2023-04-10T11:01:22;100825.88;;;16.42;39.38
72262;BME280;60173;52.112;8.648;2023-04-10T11:03:49;100822.19;;;16.38;38.45
72262;BME280;60173;52.112;8.648;2023-04-10T11:06:17;100808.56;;;16.59;38.36
72262;BME280;60173;52.112;8.648;2023-04-10T11:08:48;100806.22;;;16.78;37.99
72262;BME280;60173;52.112;8.648;2023-04-10T11:11:22;100799.41;;;16.84;38.37
72262;BME280;60173;52.112;8.648;2023-04-10T11:16:15;100780.53;;;17.04;39.37
72262;BME280;60173;52.112;8.648;2023-04-10T11:21:18;100779.91;;;17.07;36.95
72262;BME280;60173;52.112;8.648;2023-04-10T11:28:58;100757.06;;;17.69;37.54
72262;BME280;60173;52.112;8.648;2023-04-10T11:31:25;100759.81;;;17.36;37.55
72262;BME280;60173;52.112;8.648;2023-04-10T11:36:21;100755.34;;;17.10;37.86
72262;BME280;60173;52.112;8.648;2023-04-10T11:39:00;100740.78;;;17.31;37.33
72262;BME280;60173;52.112;8.648;2023-04-10T11:41:32;100741.22;;;17.54;37.08
72262;BME280;60173;52.112;8.648;2023-04-10T11:44:01;100736.50;;;17.21;35.72
72262;BME280;60173;52.112;8.648;2023-04-10T11:46:29;100738.69;;;17.15;37.49
72262;BME280;60173;52.112;8.648;2023-04-10T11:49:01;100730.34;;;17.03;36.16
72262;BME280;60173;52.112;8.648;2023-04-10T11:51:28;100719.91;;;16.76;36.29
72262;BME280;60173;52.112;8.648;2023-04-10T11:54:05;100718.72;;;17.06;36.40
72262;BME280;60173;52.112;8.648;2023-04-10T11:56:32;100717.63;;;17.20;36.79
72262;BME280;60173;52.112;8.648;2023-04-10T11:58:58;100728.28;;;17.21;36.48
72262;BME280;60173;52.112;8.648;2023-04-10T12:01:24;100719.06;;;17.38;35.44
72262;BME280;60173;52.112;8.648;2023-04-10T12:03:51;100710.72;;;17.68;36.39
72262;BME280;60173;52.112;8.648;2023-04-10T12:06:18;100705.16;;;17.43;35.58
72262;BME280;60173;52.112;8.648;2023-04-10T12:08:46;100702.88;;;17.45;36.09
72262;BME280;60173;52.112;8.648;2023-04-10T12:11:12;100700.75;;;17.30;35.75
72262;BME280;60173;52.112;8.648;2023-04-10T12:13:39;100699.59;;;17.19;36.53
72262;BME280;60173;52.112;8.648;2023-04-10T12:16:07;100689.63;;;16.93;35.87
72262;BME280;60173;52.112;8.648;2023-04-10T12:18:33;100682.38;;;17.09;36.58
72262;BME280;60173;52.112;8.648;2023-04-10T12:21:00;100673.78;;;17.44;36.94
72262;BME280;60173;52.112;8.648;2023-04-10T12:23:28;100676.66;;;17.81;36.78
72262;BME280;60173;52.112;8.648;2023-04-10T12:26:24;100670.25;;;17.89;35.92
72262;BME280;60173;52.112;8.648;2023-04-10T12:28:55;100673.88;;;17.69;36.43
72262;BME280;60173;52.112;8.648;2023-04-10T12:31:40;100671.44;;;17.67;35.33
72262;BME280;60173;52.112;8.648;2023-04-10T12:34:07;100666.34;;;17.78;36.95
72262;BME280;60173;52.112;8.648;2023-04-10T12:36:37;100653.69;;;17.52;35.40
72262;BME280;60173;52.112;8.648;2023-04-10T12:39:04;100660.75;;;17.41;36.72
72262;BME280;60173;52.112;8.648;2023-04-10T12:41:32;100654.84;;;17.51;36.85
72262;BME280;60173;52.112;8.648;2023-04-10T12:44:12;100645.72;;;17.72;37.14
72262;BME280;60173;52.112;8.648;2023-04-10T12:46:40;100642.28;;;17.62;36.87
72262;BME280;60173;52.112;8.648;2023-04-10T12:51:42;100634.94;;;17.67;37.04
72262;BME280;60173;52.112;8.648;2023-04-10T12:54:08;100630.00;;;17.48;36.45
72262;BME280;60173;52.112;8.648;2023-04-10T12:56:44;100619.16;;;17.76;35.75
72262;BME280;60173;52.112;8.648;2023-04-10T12:59:10;100611.69;;;17.52;36.02
72262;BME280;60173;52.112;8.648;2023-04-10T13:01:37;100611.31;;;17.29;35.80
72262;BME280;60173;52.112;8.648;2023-04-10T13:04:04;100584.72;;;17.54;35.72
72262;BME280;60173;52.112;8.648;2023-04-10T13:06:31;100595.13;;;17.60;36.58
72262;BME280;60173;52.112;8.648;2023-04-10T13:08:57;100584.38;;;17.68;36.87
72262;BME280;60173;52.112;8.648;2023-04-10T13:11:23;100587.63;;;17.82;36.72
72262;BME280;60173;52.112;8.648;2023-04-10T13:13:49;100578.91;;;17.80;36.08
72262;BME280;60173;52.112;8.648;2023-04-10T13:16:16;100575.00;;;17.69;36.35
72262;BME280;60173;52.112;8.648;2023-04-10T13:18:42;100575.09;;;17.48;35.28
72262;BME280;60173;52.112;8.648;2023-04-10T13:21:09;100572.03;;;17.74;36.45
72262;BME280;60173;52.112;8.648;2023-04-10T13:23:35;100566.06;;;17.84;36.83
72262;BME280;60173;52.112;8.648;2023-04-10T13:26:01;100553.25;;;18.00;37.85
72262;BME280;60173;52.112;8.648;2023-04-10T13:28:28;100543.41;;;17.87;35.20
72262;BME280;60173;52.112;8.648;2023-04-10T13:30:54;100536.19;;;17.95;35.27
72262;BME280;60173;52.112;8.648;2023-04-10T13:33:21;100529.88;;;18.06;35.37
72262;BME280;60173;52.112;8.648;2023-04-10T13:35:47;100511.09;;;18.09;34.18
72262;BME280;60173;52.112;8.648;2023-04-10T13:38:14;100521.63;;;18.06;34.66
72262;BME280;60173;52.112;8.648;2023-04-10T13:40:40;100517.50;;;18.13;34.45
72262;BME280;60173;52.112;8.648;2023-04-10T13:43:07;100512.63;;;18.34;33.85
72262;BME280;60173;52.112;8.648;2023-04-10T13:45:33;100507.28;;;18.25;32.69